Time;durP1;ratioP1;P1;durP2;ratioP2;P2;SDS_P1;SDS_P2;PMS_P1;PMS_P2;Temp;Humidity;BMP_temperature;BMP_pressure;BME280_temperature;BME280_humidity;BME280_pressure;Samples;Min_cycle;Max_cycle;Signal;HPM_P1;HPM_P2
2023/01/18 00:06:26;;;;;;;0.20;0.10;;;8.60;99.90;;;;;;21151002;28;20401;-72
2023/01/18 00:16:31;;;;;;;0.20;0.10;;;8.50;99.90;;;;;;21143735;28;20974;-73
2023/01/18 00:26:35;;;;;;;0.20;0.10;;;8.60;99.90;;;;;;21161350;28;20531;-73
2023/01/18 00:36:40;;;;;;;0.20;0.10;;;8.70;99.90;;;;;;21160513;28;20411;-74
2023/01/18 00:46:44;;;;;;;0.20;0.10;;;8.90;99.90;;;;;;21148111;28;20439;-72
2023/01/18 00:56:49;;;;;;;0.20;0.00;;;8.80;99.90;;;;;;21158773;28;20403;-73
2023/01/18 01:06:54;;;;;;;0.20;0.10;;;8.60;99.90;;;;;;21156596;28;20910;-73
2023/01/18 01:27:20;;;;;;;0.20;0.10;;;8.30;99.90;;;;;;21153574;28;20751;-72
2023/01/18 01:37:25;;;;;;;0.20;0.10;;;8.20;99.90;;;;;;21153831;28;20416;-72
2023/01/18 01:47:37;;;;;;;0.20;0.10;;;8.20;99.90;;;;;;21141159;28;20394;-72
2023/01/18 01:57:46;;;;;;;0.20;0.10;;;8.20;99.90;;;;;;21153688;28;20469;-71
2023/01/18 02:07:51;;;;;;;0.20;0.00;;;8.10;99.90;;;;;;21152587;28;20469;-71
2023/01/18 02:18:17;;;;;;;0.20;0.03;;;8.00;99.90;;;;;;21151720;28;20856;-73
2023/01/18 02:28:29;;;;;;;0.20;0.10;;;8.10;99.90;;;;;;21148752;28;20458;-74
2023/01/18 02:38:40;;;;;;;0.20;0.10;;;7.90;99.90;;;;;;21149120;28;20445;-73
2023/01/18 02:48:46;;;;;;;0.20;0.10;;;8.10;99.90;;;;;;21129320;28;20837;-72
2023/01/18 02:58:55;;;;;;;0.20;0.10;;;8.20;99.90;;;;;;21148888;28;20466;-73
2023/01/18 03:09:01;;;;;;;0.20;0.10;;;8.10;99.90;;;;;;21146452;28;20398;-73
2023/01/18 03:40:00;;;;;;;0.20;0.10;;;7.70;99.90;;;;;;21142739;28;20481;-74
2023/01/18 03:50:06;;;;;;;0.20;0.10;;;7.60;99.90;;;;;;21139464;28;20459;-72
2023/01/18 04:00:12;;;;;;;0.20;0.10;;;7.70;99.90;;;;;;21144808;28;20418;-71
2023/01/18 04:10:18;;;;;;;0.20;0.00;;;7.70;99.90;;;;;;21127395;28;20430;-71
2023/01/18 04:20:22;;;;;;;0.20;0.10;;;7.40;99.90;;;;;;21145116;28;20467;-72
2023/01/18 04:30:27;;;;;;;0.20;0.10;;;7.20;99.90;;;;;;21143190;28;20746;-71
2023/01/18 04:40:31;;;;;;;0.20;0.00;;;7.10;99.90;;;;;;21136154;28;20474;-71
2023/01/18 04:50:39;;;;;;;0.20;0.10;;;6.90;99.90;;;;;;21055992;28;20458;-71
2023/01/18 05:00:43;;;;;;;0.20;0.10;;;6.90;99.90;;;;;;21124434;27;20470;-72
2023/01/18 05:10:49;;;;;;;0.20;0.10;;;7.00;99.90;;;;;;21073422;28;20488;-71
2023/01/18 05:20:53;;;;;;;0.20;0.10;;;6.90;99.90;;;;;;21071068;28;20848;-72
2023/01/18 05:30:58;;;;;;;0.20;0.10;;;7.00;99.90;;;;;;21071675;28;20792;-71
2023/01/18 05:41:01;;;;;;;0.20;0.00;;;6.90;99.90;;;;;;21081981;28;20505;-73
2023/01/18 05:51:10;;;;;;;0.20;0.10;;;6.70;99.90;;;;;;21154193;28;21073;-72
2023/01/18 06:01:13;;;;;;;0.20;0.10;;;6.60;99.90;;;;;;21151534;28;20579;-70
2023/01/18 06:11:19;;;;;;;0.20;0.00;;;6.70;99.90;;;;;;21152653;28;20477;-74
2023/01/18 06:21:23;;;;;;;0.20;0.10;;;6.70;99.90;;;;;;21151374;28;20458;-72
2023/01/18 06:31:28;;;;;;;0.20;0.10;;;6.70;99.90;;;;;;21067655;28;20465;-75
2023/01/18 06:41:32;;;;;;;0.20;0.10;;;6.70;99.90;;;;;;21063645;28;20404;-72
2023/01/18 06:51:37;;;;;;;0.20;0.00;;;6.70;99.90;;;;;;21061777;28;20404;-72
2023/01/18 07:01:41;;;;;;;0.20;0.10;;;6.70;99.90;;;;;;21057617;28;20408;-73
2023/01/18 07:11:46;;;;;;;0.20;0.10;;;6.80;99.90;;;;;;21060363;28;20511;-74
2023/01/18 07:21:52;;;;;;;0.20;0.05;;;6.70;99.90;;;;;;21044007;28;20400;-72
2023/01/18 07:31:58;;;;;;;0.20;0.10;;;6.70;99.90;;;;;;21076026;28;20610;-71
2023/01/18 07:42:02;;;;;;;0.20;0.05;;;6.70;99.90;;;;;;21098849;28;20475;-71
2023/01/18 07:52:07;;;;;;;0.20;0.10;;;6.70;99.90;;;;;;21124920;28;20448;-74
2023/01/18 08:02:13;;;;;;;0.20;0.10;;;6.80;99.90;;;;;;21141370;28;20756;-72
2023/01/18 08:12:18;;;;;;;0.20;0.10;;;7.10;99.90;;;;;;21142068;28;20391;-72
2023/01/18 08:22:22;;;;;;;0.20;0.10;;;7.10;99.90;;;;;;21104989;28;20419;-72
2023/01/18 08:32:27;;;;;;;0.20;0.10;;;7.30;99.90;;;;;;21073941;28;20889;-72
2023/01/18 08:42:31;;;;;;;0.20;0.10;;;7.50;99.90;;;;;;21132391;28;20503;-71
2023/01/18 08:52:36;;;;;;;0.20;0.10;;;7.70;99.90;;;;;;21073111;28;20412;-73
2023/01/18 09:02:40;;;;;;;0.20;0.10;;;7.80;99.90;;;;;;21084370;28;20932;-71
2023/01/18 09:12:45;;;;;;;0.20;0.10;;;7.80;99.90;;;;;;21098108;28;20446;-71
2023/01/18 09:22:49;;;;;;;0.20;0.05;;;7.90;99.90;;;;;;21086299;28;20440;-72
2023/01/18 09:32:56;;;;;;;0.20;0.10;;;7.90;99.90;;;;;;21069005;28;21003;-70
2023/01/18 09:43:00;;;;;;;0.20;0.00;;;7.90;99.90;;;;;;21081187;28;20847;-69
2023/01/18 09:53:20;;;;;;;0.20;0.00;;;8.20;99.90;;;;;;21150654;28;20443;-70
2023/01/18 10:03:29;;;;;;;0.20;0.10;;;9.10;99.90;;;;;;21132918;28;20413;-70
2023/01/18 10:13:42;;;;;;;0.20;0.10;;;9.80;99.90;;;;;;21150162;28;20406;-71
2023/01/18 10:23:56;;;;;;;0.20;0.10;;;9.80;99.90;;;;;;21129481;28;20386;-70
2023/01/18 10:34:04;;;;;;;0.20;0.10;;;9.40;99.90;;;;;;21148266;28;20479;-69
2023/01/18 10:44:09;;;;;;;0.20;0.10;;;9.40;99.90;;;;;;21132033;28;20390;-71
2023/01/18 10:54:26;;;;;;;0.20;0.10;;;9.70;99.90;;;;;;21145367;28;20410;-70
2023/01/18 11:04:32;;;;;;;0.20;0.10;;;9.80;99.90;;;;;;21128053;28;20443;-71
2023/01/18 11:14:38;;;;;;;0.20;0.10;;;9.50;99.90;;;;;;21127037;28;20870;-71
2023/01/18 11:24:43;;;;;;;0.20;0.10;;;9.70;99.90;;;;;;21145239;28;20403;-71
2023/01/18 11:34:52;;;;;;;0.20;0.10;;;9.90;99.90;;;;;;21143488;28;20901;-74
2023/01/18 11:45:06;;;;;;;0.20;0.10;;;11.00;99.90;;;;;;21133492;28;20467;-70
2023/01/18 11:55:22;;;;;;;0.20;0.10;;;12.00;99.90;;;;;;21144724;28;20410;-71
2023/01/18 12:05:36;;;;;;;0.20;0.00;;;12.00;99.90;;;;;;21127601;28;20402;-71
2023/01/18 12:15:59;;;;;;;0.20;0.10;;;12.50;99.90;;;;;;21115423;28;20454;-71
2023/01/18 12:26:24;;;;;;;0.20;0.10;;;12.80;99.90;;;;;;21115554;28;20932;-71
2023/01/18 12:36:56;;;;;;;0.20;0.10;;;12.40;99.90;;;;;;21095211;28;20430;-71
2023/01/18 12:47:10;;;;;;;0.20;0.10;;;12.40;99.90;;;;;;21114285;28;20760;-72
2023/01/18 12:57:16;;;;;;;0.20;0.10;;;12.30;99.90;;;;;;21103900;28;20490;-71
2023/01/18 13:07:27;;;;;;;0.20;0.10;;;12.60;99.90;;;;;;21113847;28;20800;-72
2023/01/18 13:17:38;;;;;;;0.20;0.00;;;12.70;99.90;;;;;;21109168;28;20596;-71
2023/01/18 13:27:57;;;;;;;0.20;0.10;;;12.40;99.90;;;;;;21087476;28;20503;-70
2023/01/18 13:38:11;;;;;;;0.20;0.10;;;12.10;99.90;;;;;;21136837;28;20408;-69
2023/01/18 13:48:44;;;;;;;0.20;0.10;;;12.20;99.90;;;;;;21082292;28;20458;-69
2023/01/18 13:58:59;;;;;;;0.20;0.10;;;12.10;99.90;;;;;;21065704;28;20408;-69
2023/01/18 14:09:05;;;;;;;0.20;0.10;;;12.30;99.90;;;;;;21078834;28;20396;-69
2023/01/18 14:19:18;;;;;;;0.20;0.10;;;12.80;99.90;;;;;;21104898;28;20465;-71
2023/01/18 14:29:32;;;;;;;0.20;0.10;;;17.00;99.90;;;;;;21111185;28;20396;-70
2023/01/18 14:39:37;;;;;;;0.20;0.10;;;17.70;99.90;;;;;;21105312;28;20905;-71
2023/01/18 14:49:43;;;;;;;0.20;0.10;;;19.50;99.90;;;;;;21103264;28;20475;-71
2023/01/18 14:59:53;;;;;;;0.20;0.10;;;17.90;99.90;;;;;;21106686;28;20934;-71
2023/01/18 15:09:58;;;;;;;0.20;0.10;;;17.10;99.90;;;;;;21101468;28;21076;-71
2023/01/18 15:20:13;;;;;;;0.20;0.10;;;16.70;99.90;;;;;;21098392;28;21615;-71
2023/01/18 15:30:19;;;;;;;0.20;0.00;;;18.50;99.90;;;;;;21086178;28;20402;-71
2023/01/18 15:40:27;;;;;;;0.20;0.10;;;19.30;99.90;;;;;;21098722;28;20826;-71
2023/01/18 15:50:35;;;;;;;0.20;0.10;;;17.90;99.90;;;;;;21099821;28;20399;-71
2023/01/18 16:00:43;;;;;;;0.20;0.10;;;16.10;99.90;;;;;;21098317;28;20480;-71
2023/01/18 16:10:49;;;;;;;0.20;0.10;;;15.60;99.70;;;;;;21116805;28;20393;-70
2023/01/18 16:20:54;;;;;;;0.20;0.10;;;13.90;99.50;;;;;;21096457;28;20401;-70
2023/01/18 16:31:02;;;;;;;0.20;0.10;;;12.70;96.80;;;;;;21096948;28;20409;-71
2023/01/18 16:41:07;;;;;;;0.20;0.10;;;12.20;89.00;;;;;;21097672;28;20480;-70
2023/01/18 16:51:15;;;;;;;0.20;0.10;;;11.70;82.90;;;;;;21105993;28;20397;-70
2023/01/18 17:01:21;;;;;;;0.20;0.00;;;11.30;82.40;;;;;;21113167;28;20761;-70
2023/01/18 17:11:25;;;;;;;0.20;0.10;;;11.20;81.40;;;;;;21093697;28;20478;-69
2023/01/18 17:21:30;;;;;;;0.20;0.10;;;11.20;94.00;;;;;;21111980;28;20395;-70
2023/01/18 17:31:34;;;;;;;0.20;0.10;;;11.00;99.90;;;;;;21131158;28;20947;-70
2023/01/18 17:41:48;;;;;;;0.20;0.10;;;10.60;99.90;;;;;;21123945;28;20513;-70
2023/01/18 17:51:52;;;;;;;0.20;0.10;;;10.50;99.90;;;;;;21070655;27;20392;-71
2023/01/18 18:01:57;;;;;;;0.20;0.10;;;10.30;99.90;;;;;;21067070;27;20408;-71
2023/01/18 18:12:01;;;;;;;0.20;0.10;;;9.90;99.90;;;;;;21081848;28;20395;-74
2023/01/18 18:22:06;;;;;;;0.20;0.10;;;10.00;99.90;;;;;;21147684;28;20439;-73
2023/01/18 18:32:10;;;;;;;0.20;0.10;;;10.00;99.90;;;;;;21145213;28;20402;-72
2023/01/18 18:42:15;;;;;;;0.20;0.10;;;10.00;99.90;;;;;;21069164;28;20895;-73
2023/01/18 18:52:19;;;;;;;0.20;0.10;;;10.00;99.90;;;;;;21145436;28;20410;-73
2023/01/18 19:02:24;;;;;;;0.20;0.00;;;10.00;99.90;;;;;;21145086;28;20909;-72
2023/01/18 19:12:28;;;;;;;0.20;0.10;;;9.70;99.90;;;;;;21140780;28;20398;-73
2023/01/18 19:22:36;;;;;;;0.20;0.10;;;9.60;99.90;;;;;;21086221;28;20501;-73
2023/01/18 19:32:40;;;;;;;0.20;0.10;;;9.30;99.90;;;;;;21109153;28;20410;-73
2023/01/18 19:42:53;;;;;;;0.20;0.10;;;9.20;99.90;;;;;;21145913;27;20558;-74
2023/01/18 19:52:57;;;;;;;0.20;0.10;;;9.00;99.90;;;;;;21067889;28;20934;-74
2023/01/18 20:03:02;;;;;;;0.20;0.10;;;8.90;99.90;;;;;;21065802;28;20415;-73
2023/01/18 20:13:07;;;;;;;0.20;0.10;;;8.80;99.90;;;;;;21037687;28;20427;-73
2023/01/18 20:23:12;;;;;;;0.20;0.10;;;8.70;99.90;;;;;;21060047;28;20457;-74
2023/01/18 20:33:16;;;;;;;0.20;0.10;;;8.90;99.90;;;;;;21096741;28;20788;-74
2023/01/18 20:43:22;;;;;;;0.20;0.10;;;9.00;99.90;;;;;;21113373;28;20851;-74
2023/01/18 20:53:26;;;;;;;0.20;0.10;;;9.00;99.90;;;;;;21103631;28;20404;-75
2023/01/18 21:03:31;;;;;;;0.20;0.10;;;8.70;99.90;;;;;;21113546;28;20428;-74
2023/01/18 21:13:35;;;;;;;0.20;0.10;;;8.40;99.90;;;;;;21122159;28;20890;-73
2023/01/18 21:23:40;;;;;;;0.20;0.10;;;8.30;99.90;;;;;;21123618;28;20512;-72
2023/01/18 21:33:44;;;;;;;0.20;0.10;;;8.20;99.90;;;;;;21105099;28;20403;-79
2023/01/18 21:54:14;;;;;;;0.20;0.10;;;8.10;99.90;;;;;;21110425;28;20735;-77
2023/01/18 22:14:41;;;;;;;0.20;0.10;;;8.00;99.90;;;;;;21108994;28;20553;-73
2023/01/18 22:24:46;;;;;;;0.20;0.10;;;7.70;99.90;;;;;;21130209;28;20956;-74
2023/01/18 22:34:50;;;;;;;0.20;0.10;;;7.50;99.90;;;;;;21132439;28;20746;-73
2023/01/18 22:44:55;;;;;;;0.20;0.10;;;7.60;99.90;;;;;;21150409;28;20947;-73
2023/01/18 22:54:59;;;;;;;0.20;0.10;;;7.60;99.90;;;;;;21149693;28;20459;-73
2023/01/18 23:05:05;;;;;;;0.20;0.10;;;7.60;99.90;;;;;;21147588;28;20406;-72
2023/01/18 23:25:34;;;;;;;0.20;0.10;;;7.40;99.90;;;;;;21147608;28;20430;-72
2023/01/18 23:35:37;;;;;;;0.20;0.10;;;7.20;99.90;;;;;;21145839;28;20489;-72
2023/01/18 23:56:05;;;;;;;0.20;0.10;;;6.90;99.90;;;;;;21148385;28;20398;-71
